createdAt,value
2022-12-25T05:35:15.432Z,788.90
2022-12-25T05:37:42.097Z,781.58
2022-12-25T05:40:09.391Z,777.60
2022-12-25T05:42:36.003Z,788.70
2022-12-25T05:45:02.643Z,783.30
2022-12-25T05:47:29.254Z,787.22
2022-12-25T05:49:55.825Z,788.25
2022-12-25T05:52:22.455Z,786.63
2022-12-25T05:54:49.179Z,791.75
2022-12-25T05:57:15.881Z,785.40
2022-12-25T05:59:42.639Z,780.70
2022-12-25T06:02:09.365Z,771.30
2022-12-25T06:04:36.262Z,767.85
2022-12-25T06:07:03.220Z,773.63
2022-12-25T06:09:29.870Z,766.22
2022-12-25T06:11:56.481Z,765.88
2022-12-25T06:14:23.092Z,770.47
2022-12-25T06:16:53.605Z,763.35
2022-12-25T06:19:21.351Z,769.58
2022-12-25T06:21:48.196Z,769.03
2022-12-25T06:24:21.073Z,759.85
2022-12-25T06:26:48.639Z,760.83
2022-12-25T06:29:15.573Z,763.25
2022-12-25T06:31:42.243Z,770.50
2022-12-25T06:34:09.054Z,769.17
2022-12-25T06:36:37.531Z,772.47
2022-12-25T06:39:04.494Z,760.47
2022-12-25T06:41:31.419Z,769.22
2022-12-25T06:44:00.299Z,767.17
2022-12-25T06:46:29.438Z,770.10
2022-12-25T06:48:58.023Z,775.70
2022-12-25T06:51:28.127Z,775.67
2022-12-25T06:53:55.699Z,780.00
2022-12-25T06:56:25.809Z,776.50
2022-12-25T06:59:07.424Z,777.33
2022-12-25T07:01:46.268Z,782.30
2022-12-25T07:04:26.941Z,769.13
2022-12-25T07:06:53.628Z,760.53
2022-12-25T07:09:20.238Z,775.03
2022-12-25T07:11:46.941Z,751.67
2022-12-25T07:14:24.426Z,756.22
2022-12-25T07:16:51.803Z,758.15
2022-12-25T07:19:19.162Z,770.20
2022-12-25T07:21:46.238Z,762.42
2022-12-25T07:24:18.534Z,768.87
2022-12-25T07:26:45.181Z,771.97
2022-12-25T07:29:11.903Z,779.55
2022-12-25T07:31:38.581Z,776.20
2022-12-25T07:34:05.256Z,762.97
2022-12-25T07:36:32.041Z,777.63
2022-12-25T07:38:58.704Z,767.85
2022-12-25T07:41:25.354Z,770.50
2022-12-25T07:43:53.853Z,772.92
2022-12-25T07:46:22.719Z,773.53
2022-12-25T07:48:49.773Z,770.97
2022-12-25T07:51:16.717Z,765.95
2022-12-25T07:53:43.413Z,775.00
2022-12-25T07:56:15.789Z,767.97
2022-12-25T07:58:43.218Z,773.33
2022-12-25T08:01:20.071Z,761.83
2022-12-25T08:03:56.870Z,773.40
2022-12-25T08:06:29.421Z,768.13
2022-12-25T08:08:57.130Z,772.63
2022-12-25T08:11:23.787Z,770.22
2022-12-25T08:13:50.474Z,774.45
2022-12-25T08:16:17.137Z,767.63
2022-12-25T08:18:44.315Z,773.90
2022-12-25T08:21:13.861Z,774.03
2022-12-25T08:23:43.095Z,774.47
2022-12-25T08:26:13.893Z,771.20
2022-12-25T08:28:41.146Z,777.28
2022-12-25T08:31:15.156Z,775.00
2022-12-25T08:33:42.501Z,770.35
2022-12-25T08:36:11.017Z,774.42
2022-12-25T08:38:38.470Z,769.35
2022-12-25T08:41:05.569Z,770.67
2022-12-25T08:43:32.248Z,766.55
2022-12-25T08:45:58.973Z,777.13
2022-12-25T08:48:25.762Z,773.05
2022-12-25T08:50:53.165Z,766.17
2022-12-25T08:53:20.692Z,772.85
2022-12-25T08:55:47.563Z,779.58
2022-12-25T08:58:14.658Z,776.90
2022-12-25T09:00:41.407Z,780.53
2022-12-25T09:03:08.126Z,788.53
2022-12-25T09:05:36.406Z,791.80
2022-12-25T09:08:03.279Z,813.55
2022-12-25T09:10:30.432Z,823.23
2022-12-25T09:12:57.155Z,854.38
2022-12-25T09:15:23.806Z,853.92
2022-12-25T09:17:50.469Z,860.20
2022-12-25T09:20:17.136Z,875.35
2022-12-25T09:22:43.850Z,875.13
2022-12-25T09:25:10.794Z,868.97
2022-12-25T09:27:37.594Z,868.35
2022-12-25T09:30:05.497Z,869.63
2022-12-25T09:32:32.139Z,867.53
2022-12-25T09:34:58.877Z,868.83
2022-12-25T09:37:25.528Z,863.17
2022-12-25T09:39:52.210Z,856.63
2022-12-25T09:42:25.169Z,853.90
2022-12-25T09:45:11.135Z,844.17
2022-12-25T09:47:40.900Z,847.15
2022-12-25T09:50:12.183Z,849.13
2022-12-25T09:52:57.824Z,842.90
2022-12-25T09:55:26.750Z,852.95
2022-12-25T09:57:56.562Z,842.20
2022-12-25T10:00:28.684Z,842.53
2022-12-25T10:03:19.043Z,837.75
2022-12-25T10:06:17.451Z,841.70
2022-12-25T10:08:56.562Z,838.53
2022-12-25T10:11:28.983Z,833.30
2022-12-25T10:14:30.727Z,834.03
2022-12-25T10:17:23.631Z,825.88
2022-12-25T10:20:38.007Z,819.92
2022-12-25T10:23:13.824Z,830.00
2022-12-25T10:25:41.726Z,830.45
2022-12-25T10:28:20.024Z,826.10
2022-12-25T10:30:48.461Z,839.78
2022-12-25T10:33:17.440Z,821.38
2022-12-25T10:35:45.250Z,827.20
2022-12-25T10:38:16.066Z,832.38
2022-12-25T10:41:29.029Z,839.30
2022-12-25T10:43:57.319Z,834.47
2022-12-25T10:46:27.468Z,841.85
2022-12-25T10:49:00.782Z,844.28
2022-12-25T10:51:34.138Z,851.88
2022-12-25T10:54:18.771Z,853.70
2022-12-25T10:57:00.972Z,852.65
2022-12-25T10:59:30.337Z,860.50
2022-12-25T11:02:23.657Z,840.38
2022-12-25T11:04:51.555Z,844.22
2022-12-25T11:07:18.182Z,831.25
2022-12-25T11:10:02.718Z,828.63
2022-12-25T11:12:44.705Z,818.72
2022-12-25T11:15:42.767Z,819.00
2022-12-25T11:18:25.756Z,819.50
2022-12-25T11:20:58.248Z,821.25
2022-12-25T11:23:26.652Z,829.33
2022-12-25T11:26:02.290Z,832.23
2022-12-25T11:28:31.037Z,838.73
2022-12-25T11:31:02.890Z,854.03
2022-12-25T11:33:36.594Z,857.20
2022-12-25T11:36:13.486Z,852.50
2022-12-25T11:38:40.086Z,857.45
2022-12-25T11:41:10.247Z,852.50
2022-12-25T11:43:41.953Z,856.10
2022-12-25T11:46:18.317Z,857.88
2022-12-25T11:48:49.989Z,864.30
2022-12-25T11:51:19.585Z,858.80
2022-12-25T11:53:53.924Z,856.53
2022-12-25T11:56:23.793Z,859.33
2022-12-25T11:59:10.477Z,864.15
2022-12-25T12:01:45.333Z,854.92
2022-12-25T12:04:18.575Z,853.33
2022-12-25T12:07:04.954Z,854.25
2022-12-25T12:09:51.481Z,847.97
2022-12-25T12:12:29.564Z,845.33
2022-12-25T12:15:18.747Z,852.95
2022-12-25T12:17:45.475Z,855.42
2022-12-25T12:20:31.925Z,863.13
2022-12-25T12:23:00.604Z,858.78
2022-12-25T12:25:28.791Z,844.35
2022-12-25T12:28:05.147Z,848.40
2022-12-25T12:30:35.756Z,857.58
2022-12-25T12:33:05.470Z,857.70
2022-12-25T12:35:41.248Z,862.38
2022-12-25T12:38:14.931Z,859.00
2022-12-25T12:41:01.626Z,861.33
2022-12-25T12:43:39.740Z,854.17
2022-12-25T12:46:30.520Z,861.20
2022-12-25T12:49:08.785Z,858.03
2022-12-25T12:51:37.490Z,846.95
2022-12-25T12:54:21.785Z,854.80
2022-12-25T12:57:02.885Z,858.13
2022-12-25T12:59:47.938Z,860.60
2022-12-25T13:02:52.238Z,862.95
2022-12-25T13:05:43.505Z,856.35
2022-12-25T13:08:39.042Z,855.58
2022-12-25T13:11:18.292Z,854.08
2022-12-25T13:13:46.382Z,857.20
2022-12-25T13:16:32.067Z,855.40
2022-12-25T13:19:04.158Z,838.93
2022-12-25T13:21:31.094Z,830.25
2022-12-25T13:24:10.508Z,831.00
2022-12-25T13:26:39.166Z,807.60
2022-12-25T13:29:11.295Z,810.70
2022-12-25T13:31:41.104Z,813.40
2022-12-25T13:34:31.789Z,806.95
2022-12-25T13:37:13.908Z,811.50
2022-12-25T13:39:52.210Z,812.47
2022-12-25T13:42:22.340Z,821.13
2022-12-25T13:44:50.783Z,817.10
2022-12-25T13:47:30.862Z,813.75
2022-12-25T13:49:59.653Z,812.77
2022-12-25T13:52:37.677Z,797.35
2022-12-25T13:55:12.626Z,814.70
2022-12-25T13:57:51.396Z,817.58
2022-12-25T14:00:21.049Z,814.95
2022-12-25T14:02:48.464Z,794.80
2022-12-25T14:05:43.083Z,817.30
2022-12-25T14:08:21.942Z,815.63
2022-12-25T14:10:51.274Z,816.80
2022-12-25T14:13:20.760Z,822.20
2022-12-25T14:15:48.819Z,828.13
2022-12-25T14:18:18.172Z,833.22
2022-12-25T14:21:16.783Z,843.70
2022-12-25T14:23:46.408Z,849.75
2022-12-25T14:26:22.217Z,834.33
2022-12-25T14:29:13.957Z,831.13
2022-12-25T14:31:45.194Z,834.87
2022-12-25T14:34:20.060Z,824.95
2022-12-25T14:36:47.712Z,825.25
2022-12-25T14:39:31.876Z,818.95
2022-12-25T14:41:59.194Z,823.80
2022-12-25T14:44:38.719Z,834.63
2022-12-25T14:47:11.633Z,833.53
2022-12-25T14:49:38.408Z,833.65
2022-12-25T14:52:13.414Z,836.45
2022-12-25T14:54:44.068Z,828.67
2022-12-25T14:57:17.885Z,822.80
2022-12-25T14:59:44.659Z,827.55
2022-12-25T15:02:18.449Z,830.67
2022-12-25T15:04:45.526Z,826.50
2022-12-25T15:07:30.564Z,829.05
2022-12-25T15:10:27.165Z,830.70
2022-12-25T15:12:44.185Z,822.05
2022-12-25T15:15:10.986Z,830.30
2022-12-25T15:17:38.166Z,829.55
2022-12-25T15:20:06.357Z,830.80
2022-12-25T15:22:54.051Z,833.70
2022-12-25T15:25:21.770Z,830.83
2022-12-25T15:27:48.795Z,834.40
2022-12-25T15:30:15.608Z,844.30
2022-12-25T15:32:42.243Z,838.85
2022-12-25T15:35:16.008Z,834.00
2022-12-25T15:37:42.633Z,833.90
2022-12-25T15:40:12.140Z,839.07
2022-12-25T15:42:39.438Z,822.00
2022-12-25T15:45:14.529Z,828.83
2022-12-25T15:47:41.144Z,832.20
2022-12-25T15:50:08.923Z,829.10
2022-12-25T15:52:35.573Z,832.35
2022-12-25T15:55:02.174Z,842.30
2022-12-25T15:57:28.818Z,829.95
2022-12-25T15:59:55.466Z,840.50
2022-12-25T16:02:22.355Z,833.50
2022-12-25T16:04:50.985Z,831.30
2022-12-25T16:07:21.573Z,842.55
2022-12-25T16:09:48.218Z,834.65
2022-12-25T16:12:15.156Z,834.63
2022-12-25T16:14:42.042Z,835.90
2022-12-25T16:17:12.355Z,839.90
2022-12-25T16:19:39.030Z,837.55
2022-12-25T16:22:13.886Z,833.15
2022-12-25T16:24:40.815Z,835.77
2022-12-25T16:27:07.442Z,825.80
2022-12-25T16:29:34.069Z,831.00
2022-12-25T16:32:00.694Z,829.23
2022-12-25T16:34:27.368Z,834.95
2022-12-25T16:36:54.099Z,838.30
2022-12-25T16:39:21.854Z,838.25
2022-12-25T16:41:48.512Z,826.30
2022-12-25T16:44:15.235Z,837.15
2022-12-25T16:46:42.081Z,838.83
2022-12-25T16:49:08.926Z,844.00
2022-12-25T16:51:35.659Z,836.80
2022-12-25T16:54:02.392Z,837.40
2022-12-25T16:56:30.718Z,831.40
2022-12-25T16:58:58.524Z,831.28
2022-12-25T17:01:25.725Z,838.42
2022-12-25T17:03:52.759Z,829.50
2022-12-25T17:06:20.962Z,830.38
2022-12-25T17:08:47.702Z,831.25
2022-12-25T17:11:15.093Z,826.87
2022-12-25T17:13:45.662Z,830.70
2022-12-25T17:16:17.673Z,833.45
2022-12-25T17:18:44.606Z,829.15
2022-12-25T17:21:11.609Z,834.80
2022-12-25T17:23:38.724Z,833.30
2022-12-25T17:26:06.177Z,828.20
2022-12-25T17:28:34.561Z,820.60
2022-12-25T17:31:09.093Z,821.03
2022-12-25T17:33:37.970Z,830.60
2022-12-25T17:36:07.385Z,830.70
2022-12-25T17:38:34.670Z,819.40
2022-12-25T17:41:05.201Z,819.20
2022-12-25T17:43:32.711Z,818.20
2022-12-25T17:46:06.916Z,824.35
2022-12-25T17:48:36.188Z,806.30
2022-12-25T17:51:08.531Z,823.70
2022-12-25T17:53:36.558Z,828.70
2022-12-25T17:56:04.515Z,809.53
2022-12-25T17:58:31.275Z,815.35
2022-12-25T18:00:58.019Z,816.50
2022-12-25T18:03:24.804Z,818.80
2022-12-25T18:05:51.577Z,815.00
2022-12-25T18:08:18.208Z,820.00
2022-12-25T18:10:44.982Z,813.50
2022-12-25T18:13:12.156Z,820.30
2022-12-25T18:15:40.686Z,826.25
2022-12-25T18:18:08.056Z,819.60
2022-12-25T18:20:40.227Z,824.10
2022-12-25T18:23:07.931Z,807.13
2022-12-25T18:25:34.765Z,809.30
2022-12-25T18:28:02.786Z,820.53
2022-12-25T18:30:29.545Z,808.90
2022-12-25T18:32:56.207Z,817.10
2022-12-25T18:35:23.327Z,816.20
2022-12-25T18:37:50.093Z,817.13
2022-12-25T18:40:16.800Z,819.05
2022-12-25T18:42:46.164Z,812.95
2022-12-25T18:45:14.712Z,818.72
2022-12-25T18:47:41.878Z,817.42
2022-12-25T18:50:10.470Z,815.83
2022-12-25T18:52:49.609Z,816.30
2022-12-25T18:55:17.937Z,819.72
2022-12-25T18:57:44.572Z,821.33
2022-12-25T19:00:11.383Z,822.43
2022-12-25T19:02:38.149Z,809.83
2022-12-25T19:05:05.823Z,814.05
2022-12-25T19:07:32.463Z,814.95
2022-12-25T19:09:59.113Z,805.93
2022-12-25T19:12:25.790Z,802.25
2022-12-25T19:14:52.791Z,813.50
2022-12-25T19:17:19.470Z,814.50
2022-12-25T19:19:46.282Z,813.00
2022-12-25T19:22:13.184Z,820.30
2022-12-25T19:24:40.011Z,797.10
2022-12-25T19:27:06.805Z,809.92
2022-12-25T19:29:33.494Z,813.37
2022-12-25T19:32:00.129Z,819.37
2022-12-25T19:34:26.921Z,818.20
2022-12-25T19:36:53.553Z,818.90
2022-12-25T19:39:20.446Z,820.50
2022-12-25T19:41:47.371Z,817.10
2022-12-25T19:44:15.548Z,819.75
2022-12-25T19:46:42.620Z,819.15
2022-12-25T19:49:13.553Z,814.87
2022-12-25T19:51:43.887Z,815.30
2022-12-25T19:54:16.070Z,819.60
2022-12-25T19:56:43.412Z,821.90
2022-12-25T19:59:12.045Z,821.00
2022-12-25T20:01:39.449Z,818.95
2022-12-25T20:04:10.331Z,805.95
2022-12-25T20:06:39.101Z,823.80
2022-12-25T20:09:08.915Z,802.25
2022-12-25T20:11:37.003Z,807.90
2022-12-25T20:14:05.277Z,801.60
2022-12-25T20:16:32.391Z,800.80
2022-12-25T20:18:59.429Z,807.80
2022-12-25T20:21:27.245Z,805.30
2022-12-25T20:23:54.639Z,804.20
2022-12-25T20:26:25.332Z,807.95
2022-12-25T20:28:52.397Z,811.00
2022-12-25T20:33:47.894Z,805.30
2022-12-25T20:36:15.363Z,809.40
2022-12-25T20:41:28.515Z,808.67
2022-12-25T20:43:56.832Z,808.55
2022-12-25T20:46:24.517Z,794.90
2022-12-25T20:48:52.730Z,800.00
2022-12-25T20:51:22.217Z,802.45
2022-12-25T20:53:49.336Z,804.50
2022-12-25T20:56:19.016Z,793.25
2022-12-25T21:01:18.151Z,791.10
2022-12-25T21:03:45.637Z,799.55
2022-12-25T21:06:13.250Z,792.30
2022-12-25T21:08:40.984Z,785.20
2022-12-25T21:11:08.100Z,778.70
2022-12-25T21:18:31.643Z,777.30
2022-12-25T21:20:59.413Z,769.55
2022-12-25T21:23:28.863Z,771.90
2022-12-25T21:25:55.750Z,772.90
2022-12-25T21:28:24.223Z,768.30
2022-12-25T21:33:36.394Z,768.90
2022-12-25T21:36:10.452Z,772.20
2022-12-25T21:38:37.963Z,749.60
2022-12-25T21:41:10.055Z,754.20
2022-12-25T21:43:37.758Z,753.80
2022-12-25T21:46:06.549Z,753.70
2022-12-25T21:48:35.084Z,756.35
2022-12-25T21:51:26.251Z,747.20
2022-12-25T21:53:53.057Z,753.45
2022-12-25T21:56:19.777Z,750.00
2022-12-25T21:58:47.094Z,754.63
2022-12-25T22:01:16.959Z,758.07
2022-12-25T22:03:44.714Z,759.00
2022-12-25T22:06:31.083Z,755.78
2022-12-25T22:08:57.748Z,763.17
2022-12-25T22:11:46.147Z,761.03
2022-12-25T22:14:51.058Z,767.50
2022-12-25T22:17:41.957Z,770.92
2022-12-25T22:20:12.683Z,769.47
2022-12-25T22:22:39.274Z,777.35
2022-12-25T22:25:06.981Z,771.87
2022-12-25T22:27:36.409Z,776.35
2022-12-25T22:30:04.000Z,772.03
2022-12-25T22:32:30.615Z,776.60
2022-12-25T22:34:57.343Z,775.40
2022-12-25T22:37:24.087Z,765.20
2022-12-25T22:39:50.739Z,772.53
2022-12-25T22:42:17.647Z,778.23
2022-12-25T22:44:45.516Z,772.30
2022-12-25T22:47:12.172Z,771.80
2022-12-25T22:49:39.487Z,769.23
2022-12-25T22:52:08.012Z,775.80
2022-12-25T22:54:34.683Z,773.60
2022-12-25T22:57:01.420Z,787.13
2022-12-25T22:59:28.220Z,780.00
2022-12-25T23:01:55.099Z,778.50
2022-12-25T23:04:21.951Z,777.30
2022-12-25T23:06:48.678Z,779.72
2022-12-25T23:09:24.226Z,776.50
2022-12-25T23:11:51.380Z,778.10
2022-12-25T23:14:36.527Z,783.53
2022-12-25T23:17:03.285Z,783.05
2022-12-25T23:19:48.550Z,787.85
2022-12-25T23:22:34.017Z,779.75
2022-12-25T23:25:19.505Z,789.80
2022-12-25T23:27:46.093Z,785.15
2022-12-25T23:30:15.470Z,782.43
2022-12-25T23:32:43.853Z,785.80
2022-12-25T23:35:11.645Z,782.65
2022-12-25T23:37:38.225Z,782.85
2022-12-25T23:40:05.450Z,783.60
2022-12-25T23:42:32.081Z,776.50
2022-12-25T23:44:58.726Z,775.90
2022-12-25T23:47:25.344Z,783.15
2022-12-25T23:49:51.991Z,778.40
2022-12-25T23:52:18.659Z,778.60
2022-12-25T23:54:45.263Z,788.40
2022-12-25T23:57:11.897Z,780.63
2022-12-25T23:59:38.518Z,777.40
